Time;durP1;ratioP1;P1;durP2;ratioP2;P2;SDS_P1;SDS_P2;PMS_P1;PMS_P2;Temp;Humidity;BMP_temperature;BMP_pressure;BME280_temperature;BME280_humidity;BME280_pressure;Samples;Min_cycle;Max_cycle;Signal;HPM_P1;HPM_P2
2022/09/11 00:01:42;;;;;;;;;;;22.10;56.70;;;;;;5074089;28;19931;-60
2022/09/11 00:04:09;;;;;;;;;;;22.10;56.70;;;;;;5069583;28;19932;-60
2022/09/11 00:06:36;;;;;;;;;;;22.10;56.70;;;;;;5065174;28;19921;-60
2022/09/11 00:09:03;;;;;;;;;;;22.10;56.70;;;;;;5063322;28;19920;-60
2022/09/11 00:11:33;;;;;;;;;;;22.10;56.70;;;;;;5073590;28;19982;-61
2022/09/11 00:13:59;;;;;;;;;;;22.10;56.70;;;;;;5067941;28;19952;-60
2022/09/11 00:16:27;;;;;;;;;;;22.10;56.70;;;;;;5069709;28;19924;-60
2022/09/11 00:18:54;;;;;;;;;;;22.10;56.60;;;;;;5091066;28;19920;-60
2022/09/11 00:21:21;;;;;;;;;;;22.10;56.50;;;;;;5068236;28;19920;-60
2022/09/11 00:23:48;;;;;;;;;;;22.10;56.50;;;;;;5053100;28;20011;-60
2022/09/11 00:26:15;;;;;;;;;;;22.20;56.50;;;;;;5054051;28;19936;-61
2022/09/11 00:28:44;;;;;;;;;;;22.20;56.50;;;;;;5061656;28;19920;-60
2022/09/11 00:31:11;;;;;;;;;;;22.20;56.50;;;;;;5070578;28;20365;-60
2022/09/11 00:33:38;;;;;;;;;;;22.20;56.40;;;;;;5073187;28;19930;-60
2022/09/11 00:36:06;;;;;;;;;;;22.20;56.40;;;;;;5073107;28;19959;-60
2022/09/11 00:38:34;;;;;;;;;;;22.20;56.50;;;;;;5062407;28;19975;-60
2022/09/11 00:41:01;;;;;;;;;;;22.20;56.40;;;;;;5053083;28;19927;-60
2022/09/11 00:43:28;;;;;;;;;;;22.20;56.40;;;;;;5064479;28;19926;-60
2022/09/11 00:45:56;;;;;;;;;;;22.20;56.40;;;;;;5054365;28;19968;-61
2022/09/11 00:48:24;;;;;;;;;;;22.20;56.40;;;;;;5070820;28;19968;-61
2022/09/11 00:50:51;;;;;;;;;;;22.20;56.40;;;;;;5072904;28;19971;-60
2022/09/11 00:53:19;;;;;;;;;;;22.20;56.30;;;;;;5052597;28;20015;-60
2022/09/11 00:55:49;;;;;;;;;;;22.20;56.30;;;;;;5079177;28;19946;-60
2022/09/11 00:58:16;;;;;;;;;;;22.20;56.30;;;;;;5071830;28;20373;-61
2022/09/11 01:00:43;;;;;;;;;;;22.20;56.30;;;;;;5070983;28;19927;-60
2022/09/11 01:03:11;;;;;;;;;;;22.20;56.40;;;;;;5055458;28;20031;-60
2022/09/11 01:05:38;;;;;;;;;;;22.20;56.30;;;;;;5062907;28;19965;-60
2022/09/11 01:08:05;;;;;;;;;;;22.20;56.30;;;;;;5070479;28;20311;-60
2022/09/11 01:10:34;;;;;;;;;;;22.20;56.20;;;;;;5090740;28;19927;-60
2022/09/11 01:13:01;;;;;;;;;;;22.20;56.20;;;;;;5090281;28;19950;-60
2022/09/11 01:15:30;;;;;;;;;;;22.20;56.20;;;;;;5071483;28;20031;-60
2022/09/11 01:17:59;;;;;;;;;;;22.20;56.20;;;;;;5071256;28;19973;-60
2022/09/11 01:20:29;;;;;;;;;;;22.20;56.20;;;;;;5068204;28;19976;-60
2022/09/11 01:23:08;;;;;;;;;;;22.20;56.20;;;;;;5051857;28;19924;-60
2022/09/11 01:25:39;;;;;;;;;;;22.20;56.30;;;;;;5052090;28;19920;-60
2022/09/11 01:28:08;;;;;;;;;;;22.20;56.20;;;;;;5070762;28;19970;-60
2022/09/11 01:30:36;;;;;;;;;;;22.20;56.20;;;;;;5052507;28;19920;-60
2022/09/11 01:33:06;;;;;;;;;;;22.20;56.20;;;;;;5051616;28;19950;-60
2022/09/11 01:35:36;;;;;;;;;;;22.20;56.80;;;;;;5071103;28;19920;-60
2022/09/11 01:38:04;;;;;;;;;;;22.20;56.20;;;;;;5071065;28;20011;-60
2022/09/11 01:40:35;;;;;;;;;;;22.20;56.30;;;;;;5053029;28;19924;-60
2022/09/11 01:43:05;;;;;;;;;;;22.20;56.20;;;;;;5081392;28;19973;-60
2022/09/11 01:45:33;;;;;;;;;;;22.20;56.20;;;;;;5071608;28;19924;-60
2022/09/11 01:47:59;;;;;;;;;;;22.20;56.20;;;;;;5066472;28;19970;-60
2022/09/11 01:50:26;;;;;;;;;;;22.20;56.30;;;;;;5067322;28;19927;-60
2022/09/11 01:52:54;;;;;;;;;;;22.20;56.30;;;;;;5043291;28;19924;-60
2022/09/11 01:55:21;;;;;;;;;;;22.20;56.30;;;;;;5051278;28;19962;-60
2022/09/11 01:57:48;;;;;;;;;;;22.20;56.30;;;;;;5082712;28;19920;-61
2022/09/11 02:00:15;;;;;;;;;;;22.20;56.30;;;;;;5072034;28;19971;-60
2022/09/11 02:02:44;;;;;;;;;;;22.20;56.30;;;;;;5070015;28;20026;-60
2022/09/11 02:05:14;;;;;;;;;;;22.20;56.30;;;;;;5071736;28;19924;-60
2022/09/11 02:07:41;;;;;;;;;;;22.20;56.30;;;;;;5089366;28;19973;-61
2022/09/11 02:10:09;;;;;;;;;;;22.20;56.30;;;;;;5062479;28;20019;-60
2022/09/11 02:12:39;;;;;;;;;;;22.20;56.20;;;;;;5080906;28;19973;-60
2022/09/11 02:15:07;;;;;;;;;;;22.20;56.30;;;;;;5051493;28;19921;-61
2022/09/11 02:17:41;;;;;;;;;;;22.20;56.20;;;;;;5072091;28;19924;-60
2022/09/11 02:20:09;;;;;;;;;;;22.20;56.30;;;;;;5055274;28;19959;-59
2022/09/11 02:22:36;;;;;;;;;;;22.20;56.40;;;;;;5051129;28;19927;-60
2022/09/11 02:25:03;;;;;;;;;;;22.20;56.40;;;;;;5063386;28;20019;-60
2022/09/11 02:27:30;;;;;;;;;;;22.20;56.40;;;;;;5061859;28;19920;-60
2022/09/11 02:29:57;;;;;;;;;;;22.20;56.40;;;;;;5078514;28;19971;-60
2022/09/11 02:32:24;;;;;;;;;;;22.20;56.40;;;;;;5075232;28;20408;-60
2022/09/11 02:34:51;;;;;;;;;;;22.20;56.30;;;;;;5088950;28;19935;-60
2022/09/11 02:37:21;;;;;;;;;;;22.20;56.90;;;;;;5088972;28;19934;-61
2022/09/11 02:39:53;;;;;;;;;;;22.20;56.30;;;;;;5070543;28;20031;-60
2022/09/11 02:42:30;;;;;;;;;;;22.20;56.30;;;;;;5065273;28;20007;-60
2022/09/11 02:44:59;;;;;;;;;;;22.20;56.30;;;;;;5051274;28;19981;-60
2022/09/11 02:47:29;;;;;;;;;;;22.20;56.30;;;;;;5062612;28;20018;-60
2022/09/11 02:49:59;;;;;;;;;;;22.20;56.30;;;;;;5057610;28;19931;-60
2022/09/11 02:52:29;;;;;;;;;;;22.20;56.30;;;;;;5066515;28;20326;-60
2022/09/11 02:54:56;;;;;;;;;;;22.20;56.30;;;;;;5071693;28;19955;-60
2022/09/11 02:57:25;;;;;;;;;;;22.20;56.40;;;;;;5074407;28;20444;-60
2022/09/11 02:59:52;;;;;;;;;;;22.20;56.40;;;;;;5074212;28;19930;-59
2022/09/11 03:02:19;;;;;;;;;;;22.20;56.40;;;;;;5061354;28;20019;-59
2022/09/11 03:04:47;;;;;;;;;;;22.20;56.40;;;;;;5074855;28;19924;-61
2022/09/11 03:07:14;;;;;;;;;;;22.20;56.40;;;;;;5091376;28;19927;-59
2022/09/11 03:09:42;;;;;;;;;;;22.20;56.40;;;;;;5075921;28;19970;-59
2022/09/11 03:12:09;;;;;;;;;;;22.20;56.40;;;;;;5092287;28;19927;-59
2022/09/11 03:14:37;;;;;;;;;;;22.20;56.40;;;;;;5074881;28;19924;-59
2022/09/11 03:17:03;;;;;;;;;;;22.20;56.40;;;;;;5073510;28;19920;-59
2022/09/11 03:19:30;;;;;;;;;;;22.20;56.40;;;;;;5069496;28;19930;-59
2022/09/11 03:21:57;;;;;;;;;;;22.20;56.40;;;;;;5074759;28;19951;-61
2022/09/11 03:24:25;;;;;;;;;;;22.20;56.40;;;;;;5066799;28;19928;-59
2022/09/11 03:26:53;;;;;;;;;;;22.20;56.40;;;;;;5061060;28;19928;-59
2022/09/11 03:29:19;;;;;;;;;;;22.20;56.40;;;;;;5061431;28;19920;-59
2022/09/11 03:31:46;;;;;;;;;;;22.20;56.30;;;;;;5066096;28;20030;-59
2022/09/11 03:34:13;;;;;;;;;;;22.20;56.30;;;;;;5062982;28;20007;-59
2022/09/11 03:36:40;;;;;;;;;;;22.20;56.30;;;;;;5057844;28;19920;-60
2022/09/11 03:39:06;;;;;;;;;;;22.20;56.30;;;;;;5058009;28;19959;-59
2022/09/11 03:41:33;;;;;;;;;;;22.20;56.30;;;;;;5078971;28;19966;-60
2022/09/11 03:44:05;;;;;;;;;;;22.20;56.30;;;;;;5074111;28;20012;-59
2022/09/11 03:46:31;;;;;;;;;;;22.20;56.80;;;;;;5072743;28;19920;-59
2022/09/11 03:48:58;;;;;;;;;;;22.20;56.30;;;;;;5068884;28;19920;-59
2022/09/11 03:51:25;;;;;;;;;;;22.20;56.30;;;;;;5092302;28;19924;-62
2022/09/11 03:53:52;;;;;;;;;;;22.20;56.30;;;;;;5069180;28;20414;-59
2022/09/11 03:56:19;;;;;;;;;;;22.20;56.30;;;;;;5092073;28;19920;-61
2022/09/11 03:58:47;;;;;;;;;;;22.20;56.30;;;;;;5066314;28;19978;-61
2022/09/11 04:01:17;;;;;;;;;;;22.20;56.30;;;;;;5063748;28;19926;-60
2022/09/11 04:03:44;;;;;;;;;;;22.20;56.20;;;;;;5062841;28;19921;-59
2022/09/11 04:06:11;;;;;;;;;;;22.20;56.20;;;;;;5067299;28;19966;-58
2022/09/11 04:08:40;;;;;;;;;;;22.20;56.20;;;;;;5068902;28;19920;-59
2022/09/11 04:11:06;;;;;;;;;;;22.20;56.20;;;;;;5091941;28;20372;-59
2022/09/11 04:13:33;;;;;;;;;;;22.20;56.20;;;;;;5082293;28;19977;-59
2022/09/11 04:16:01;;;;;;;;;;;22.20;56.20;;;;;;5053229;28;19928;-61
2022/09/11 04:18:30;;;;;;;;;;;22.20;56.10;;;;;;5056556;28;19929;-60
2022/09/11 04:20:56;;;;;;;;;;;22.20;56.20;;;;;;5056667;28;19955;-60
2022/09/11 04:23:24;;;;;;;;;;;22.20;56.20;;;;;;5077580;28;19963;-61
2022/09/11 04:25:51;;;;;;;;;;;22.20;56.20;;;;;;5053577;28;19924;-60
2022/09/11 04:28:18;;;;;;;;;;;22.20;56.20;;;;;;5057117;28;19924;-60
2022/09/11 04:30:45;;;;;;;;;;;22.20;56.20;;;;;;5053547;28;19921;-60
2022/09/11 04:33:12;;;;;;;;;;;22.20;56.20;;;;;;5059043;28;19920;-60
2022/09/11 04:35:43;;;;;;;;;;;22.20;56.20;;;;;;5056504;28;20007;-60
2022/09/11 04:38:10;;;;;;;;;;;22.20;56.20;;;;;;5061214;28;19924;-60
2022/09/11 04:40:36;;;;;;;;;;;22.20;56.20;;;;;;5069824;28;19935;-60
2022/09/11 04:43:03;;;;;;;;;;;22.20;56.20;;;;;;5053374;28;20427;-60
2022/09/11 04:45:32;;;;;;;;;;;22.20;56.20;;;;;;5062722;28;19969;-60
2022/09/11 04:47:59;;;;;;;;;;;22.20;56.70;;;;;;5071620;28;19932;-62
2022/09/11 04:50:27;;;;;;;;;;;22.20;56.20;;;;;;5068781;28;19989;-60
2022/09/11 04:52:55;;;;;;;;;;;22.20;56.20;;;;;;5071051;28;20018;-61
2022/09/11 04:55:22;;;;;;;;;;;22.20;56.20;;;;;;5053059;28;20370;-60
2022/09/11 04:57:48;;;;;;;;;;;22.20;56.10;;;;;;5063136;28;20001;-60
2022/09/11 05:00:15;;;;;;;;;;;22.20;56.20;;;;;;5051936;28;20023;-61
2022/09/11 05:02:42;;;;;;;;;;;22.20;56.20;;;;;;5070284;28;19920;-60
2022/09/11 05:05:09;;;;;;;;;;;22.20;56.20;;;;;;5057975;28;19932;-60
2022/09/11 05:07:35;;;;;;;;;;;22.20;56.20;;;;;;5072406;28;20065;-61
2022/09/11 05:10:04;;;;;;;;;;;22.20;56.20;;;;;;5083849;28;19928;-61
2022/09/11 05:12:31;;;;;;;;;;;22.20;56.20;;;;;;5054449;28;19982;-60
2022/09/11 05:14:58;;;;;;;;;;;22.20;56.20;;;;;;5068897;28;20365;-61
2022/09/11 05:17:25;;;;;;;;;;;22.20;56.20;;;;;;5061341;28;20343;-61
2022/09/11 05:19:52;;;;;;;;;;;22.20;56.20;;;;;;5065258;28;19924;-60
2022/09/11 05:22:18;;;;;;;;;;;22.20;56.20;;;;;;5074286;28;19962;-61
2022/09/11 05:24:45;;;;;;;;;;;22.20;56.20;;;;;;5053340;28;20422;-61
2022/09/11 05:27:13;;;;;;;;;;;22.20;56.20;;;;;;5052420;28;19945;-60
2022/09/11 05:29:40;;;;;;;;;;;22.20;56.20;;;;;;5060739;28;19919;-61
2022/09/11 05:32:07;;;;;;;;;;;22.20;56.30;;;;;;5066053;28;19924;-61
2022/09/11 05:34:34;;;;;;;;;;;22.20;56.20;;;;;;5076193;28;19920;-61
2022/09/11 05:37:01;;;;;;;;;;;22.20;56.20;;;;;;5072199;28;20357;-60
2022/09/11 05:39:27;;;;;;;;;;;22.20;56.20;;;;;;5060303;28;19987;-60
2022/09/11 05:41:55;;;;;;;;;;;22.20;56.20;;;;;;5064002;28;19965;-61
2022/09/11 05:44:23;;;;;;;;;;;22.20;56.30;;;;;;5081779;28;19928;-61
2022/09/11 05:46:50;;;;;;;;;;;22.20;56.30;;;;;;5068577;28;20046;-60
2022/09/11 05:49:18;;;;;;;;;;;22.20;56.30;;;;;;5067447;28;19970;-61
2022/09/11 05:51:44;;;;;;;;;;;22.20;56.20;;;;;;5070166;28;19920;-61
2022/09/11 05:54:11;;;;;;;;;;;22.20;56.20;;;;;;5051940;28;19943;-60
2022/09/11 05:56:38;;;;;;;;;;;22.10;56.10;;;;;;5070765;28;19931;-61
2022/09/11 05:59:08;;;;;;;;;;;22.20;56.20;;;;;;5072089;28;20164;-62
2022/09/11 06:01:36;;;;;;;;;;;22.10;56.10;;;;;;5071074;28;19920;-60
2022/09/11 06:04:03;;;;;;;;;;;22.10;56.10;;;;;;5064168;28;20294;-61
2022/09/11 06:06:29;;;;;;;;;;;22.10;56.10;;;;;;5068469;28;19920;-60
2022/09/11 06:08:59;;;;;;;;;;;22.10;56.10;;;;;;5082994;28;19966;-61
2022/09/11 06:11:26;;;;;;;;;;;22.10;56.10;;;;;;5051971;28;20019;-61
2022/09/11 06:13:54;;;;;;;;;;;22.10;56.10;;;;;;5057358;28;19991;-61
2022/09/11 06:16:21;;;;;;;;;;;22.10;56.10;;;;;;5086898;28;20345;-61
2022/09/11 06:18:49;;;;;;;;;;;22.10;56.10;;;;;;5071495;28;20384;-61
2022/09/11 06:21:18;;;;;;;;;;;22.10;56.10;;;;;;5070882;28;19924;-61
2022/09/11 06:23:45;;;;;;;;;;;22.10;56.10;;;;;;5056299;28;20015;-61
2022/09/11 06:26:13;;;;;;;;;;;22.10;56.10;;;;;;5069547;28;20366;-61
2022/09/11 06:28:39;;;;;;;;;;;22.10;56.10;;;;;;5055922;28;19981;-61
2022/09/11 06:31:06;;;;;;;;;;;22.10;56.10;;;;;;5060894;28;19924;-61
2022/09/11 06:33:34;;;;;;;;;;;22.10;56.10;;;;;;5073014;28;20022;-60
2022/09/11 06:36:04;;;;;;;;;;;22.10;56.00;;;;;;5066120;28;20435;-61
2022/09/11 06:38:31;;;;;;;;;;;22.10;56.00;;;;;;5072014;28;19976;-60
2022/09/11 06:40:58;;;;;;;;;;;22.10;56.00;;;;;;5059648;28;19932;-61
2022/09/11 06:43:25;;;;;;;;;;;22.10;56.00;;;;;;5086142;28;20043;-61
2022/09/11 06:45:52;;;;;;;;;;;22.10;56.00;;;;;;5065404;28;19960;-61
2022/09/11 06:48:18;;;;;;;;;;;22.10;55.90;;;;;;5074081;28;20289;-61
2022/09/11 06:50:45;;;;;;;;;;;22.10;55.90;;;;;;5057607;28;19931;-61
2022/09/11 06:53:14;;;;;;;;;;;22.10;56.50;;;;;;5087037;28;19920;-60
2022/09/11 06:55:42;;;;;;;;;;;22.10;55.90;;;;;;5092296;28;20023;-61
2022/09/11 06:58:09;;;;;;;;;;;22.10;55.90;;;;;;5057005;28;19924;-60
2022/09/11 07:00:36;;;;;;;;;;;22.10;55.90;;;;;;5059723;28;19977;-60
2022/09/11 07:03:03;;;;;;;;;;;22.10;55.90;;;;;;5093238;28;19920;-61
2022/09/11 07:05:32;;;;;;;;;;;22.10;55.90;;;;;;5088791;28;19923;-61
2022/09/11 07:07:59;;;;;;;;;;;22.10;55.90;;;;;;5090508;28;19930;-61
2022/09/11 07:10:27;;;;;;;;;;;22.10;55.90;;;;;;5074750;28;19928;-61
2022/09/11 07:12:54;;;;;;;;;;;22.10;55.90;;;;;;5059298;28;19927;-60
2022/09/11 07:15:21;;;;;;;;;;;22.10;55.90;;;;;;5086335;28;19926;-60
2022/09/11 07:17:48;;;;;;;;;;;22.10;55.90;;;;;;5093208;28;19927;-61
2022/09/11 07:20:16;;;;;;;;;;;22.10;55.90;;;;;;5042449;28;19931;-60
2022/09/11 07:22:44;;;;;;;;;;;22.10;55.90;;;;;;5073402;28;20421;-61
2022/09/11 07:25:11;;;;;;;;;;;22.10;55.90;;;;;;5068564;28;20349;-61
2022/09/11 07:27:40;;;;;;;;;;;22.10;55.90;;;;;;5059917;28;19990;-60
2022/09/11 07:30:07;;;;;;;;;;;22.10;55.90;;;;;;5072669;28;19973;-62
2022/09/11 07:32:34;;;;;;;;;;;22.10;55.90;;;;;;5074428;28;19920;-60
2022/09/11 07:35:01;;;;;;;;;;;22.10;55.90;;;;;;5072369;28;19966;-60
2022/09/11 07:37:28;;;;;;;;;;;22.10;55.80;;;;;;5056828;28;19920;-60
2022/09/11 07:39:54;;;;;;;;;;;22.10;55.80;;;;;;5068932;28;19977;-61
2022/09/11 07:42:21;;;;;;;;;;;22.10;55.80;;;;;;5073938;28;20008;-61
2022/09/11 07:44:52;;;;;;;;;;;22.10;55.80;;;;;;5091599;28;19924;-61
2022/09/11 07:47:18;;;;;;;;;;;22.10;55.80;;;;;;5073384;28;20006;-61
2022/09/11 07:49:46;;;;;;;;;;;22.10;55.80;;;;;;5068123;28;19924;-61
2022/09/11 07:52:13;;;;;;;;;;;22.10;55.80;;;;;;5067011;28;19928;-61
2022/09/11 07:54:41;;;;;;;;;;;22.10;55.80;;;;;;5086532;28;20393;-61
2022/09/11 07:57:08;;;;;;;;;;;22.10;55.80;;;;;;5074046;28;19930;-61
2022/09/11 07:59:35;;;;;;;;;;;22.10;55.80;;;;;;5070672;28;19920;-61
2022/09/11 08:02:03;;;;;;;;;;;22.10;55.80;;;;;;5073822;28;19920;-60
2022/09/11 08:04:29;;;;;;;;;;;22.10;55.80;;;;;;5069454;28;19924;-60
2022/09/11 08:06:56;;;;;;;;;;;22.10;55.80;;;;;;5067024;28;19927;-61
2022/09/11 08:09:25;;;;;;;;;;;22.10;55.70;;;;;;5071338;28;20280;-61
2022/09/11 08:11:54;;;;;;;;;;;22.10;55.70;;;;;;5070677;28;19920;-61
2022/09/11 08:14:22;;;;;;;;;;;22.10;55.80;;;;;;5088199;28;19939;-61
2022/09/11 08:16:48;;;;;;;;;;;22.10;55.80;;;;;;5068435;28;20366;-61
2022/09/11 08:19:17;;;;;;;;;;;22.10;55.70;;;;;;5070132;28;19924;-61
2022/09/11 08:21:46;;;;;;;;;;;22.10;55.70;;;;;;5090674;28;20015;-60
2022/09/11 08:24:12;;;;;;;;;;;22.10;55.70;;;;;;5071218;28;19924;-60
2022/09/11 08:26:39;;;;;;;;;;;22.10;55.70;;;;;;5071815;28;19924;-62
2022/09/11 08:29:06;;;;;;;;;;;22.10;55.70;;;;;;5070969;28;19924;-61
2022/09/11 08:31:34;;;;;;;;;;;22.10;55.70;;;;;;5071563;28;19979;-61
2022/09/11 08:34:00;;;;;;;;;;;22.10;55.70;;;;;;5072767;28;19920;-60
2022/09/11 08:36:29;;;;;;;;;;;22.10;55.70;;;;;;5066587;28;19924;-61
2022/09/11 08:38:55;;;;;;;;;;;22.10;55.70;;;;;;5057499;28;19927;-60
2022/09/11 08:41:27;;;;;;;;;;;22.10;55.80;;;;;;5069199;28;19939;-61
2022/09/11 08:43:55;;;;;;;;;;;22.10;55.70;;;;;;5063284;28;19946;-60
2022/09/11 08:46:23;;;;;;;;;;;22.10;55.70;;;;;;5070942;28;19931;-61
2022/09/11 08:48:50;;;;;;;;;;;22.10;55.70;;;;;;5068812;28;20008;-61
2022/09/11 08:51:17;;;;;;;;;;;22.10;55.70;;;;;;5058718;28;20107;-60
2022/09/11 08:53:45;;;;;;;;;;;22.10;55.70;;;;;;5057274;28;19924;-60
2022/09/11 08:56:12;;;;;;;;;;;22.10;55.70;;;;;;5067507;28;19974;-60
2022/09/11 08:58:40;;;;;;;;;;;22.10;55.70;;;;;;5062905;28;20269;-60
2022/09/11 09:01:09;;;;;;;;;;;22.10;55.70;;;;;;5061765;28;19924;-60
2022/09/11 09:03:49;;;;;;;;;;;22.10;55.70;;;;;;5057288;28;19925;-61
2022/09/11 09:06:21;;;;;;;;;;;22.10;55.70;;;;;;5062481;28;20354;-61
2022/09/11 09:08:50;;;;;;;;;;;22.10;55.70;;;;;;5067651;28;19934;-60
2022/09/11 09:11:20;;;;;;;;;;;22.10;55.70;;;;;;5061228;28;20023;-61
2022/09/11 09:14:05;;;;;;;;;;;22.10;55.70;;;;;;5064109;28;19932;-61
2022/09/11 09:16:35;;;;;;;;;;;22.10;55.70;;;;;;5051627;28;19928;-60
2022/09/11 09:19:03;;;;;;;;;;;22.20;55.80;;;;;;5064277;28;19931;-60
2022/09/11 09:21:30;;;;;;;;;;;22.20;55.80;;;;;;5068179;28;20365;-60
2022/09/11 09:23:59;;;;;;;;;;;22.20;55.80;;;;;;5068371;28;20261;-61
2022/09/11 09:26:26;;;;;;;;;;;22.20;55.80;;;;;;5061278;28;19924;-61
2022/09/11 09:28:54;;;;;;;;;;;22.20;55.80;;;;;;5067100;28;19963;-60
2022/09/11 09:31:21;;;;;;;;;;;22.20;55.80;;;;;;5061627;28;19924;-60
2022/09/11 09:33:49;;;;;;;;;;;22.20;55.80;;;;;;5063528;28;19970;-60
2022/09/11 09:36:16;;;;;;;;;;;22.20;55.90;;;;;;5075820;28;19928;-62
2022/09/11 09:38:43;;;;;;;;;;;22.20;55.90;;;;;;5057692;28;19920;-61
2022/09/11 09:41:28;;;;;;;;;;;22.20;55.90;;;;;;5074279;28;19942;-61
2022/09/11 09:43:57;;;;;;;;;;;22.20;55.90;;;;;;5062371;28;19940;-61
2022/09/11 09:46:26;;;;;;;;;;;22.20;55.90;;;;;;5060078;28;20044;-61
2022/09/11 09:48:54;;;;;;;;;;;22.20;55.90;;;;;;5062911;28;19970;-60
2022/09/11 09:51:21;;;;;;;;;;;22.20;56.40;;;;;;5058170;28;19920;-60
2022/09/11 09:53:48;;;;;;;;;;;22.20;55.80;;;;;;5077492;28;19967;-60
2022/09/11 09:56:16;;;;;;;;;;;22.20;55.80;;;;;;5063420;28;20179;-61
2022/09/11 09:58:45;;;;;;;;;;;22.20;55.80;;;;;;5079368;28;19920;-61
2022/09/11 10:01:27;;;;;;;;;;;22.20;55.80;;;;;;5068678;28;20035;-61
2022/09/11 10:04:00;;;;;;;;;;;22.20;55.80;;;;;;5080954;28;19975;-61
2022/09/11 10:06:27;;;;;;;;;;;22.20;55.80;;;;;;5064160;28;19947;-62
2022/09/11 10:08:57;;;;;;;;;;;22.20;55.80;;;;;;5064566;28;20360;-61
2022/09/11 10:11:27;;;;;;;;;;;22.20;55.80;;;;;;5066624;28;19942;-61
2022/09/11 10:13:54;;;;;;;;;;;22.20;55.80;;;;;;5069679;28;19927;-61
2022/09/11 10:16:21;;;;;;;;;;;22.20;55.70;;;;;;5067968;28;19931;-61
2022/09/11 10:18:48;;;;;;;;;;;22.20;55.70;;;;;;5074665;28;20022;-61
2022/09/11 10:21:20;;;;;;;;;;;22.20;55.70;;;;;;5063647;28;20007;-61
2022/09/11 10:23:49;;;;;;;;;;;22.20;55.70;;;;;;5082923;28;19938;-60
2022/09/11 10:26:16;;;;;;;;;;;22.20;55.70;;;;;;5073572;28;19920;-61
2022/09/11 10:28:44;;;;;;;;;;;22.20;55.70;;;;;;5058125;28;19920;-61
2022/09/11 10:31:13;;;;;;;;;;;22.20;55.70;;;;;;5064296;28;19981;-61
2022/09/11 10:33:40;;;;;;;;;;;22.30;55.70;;;;;;5074748;28;19920;-60
2022/09/11 10:36:08;;;;;;;;;;;22.30;55.70;;;;;;5067044;28;19970;-61
2022/09/11 10:38:37;;;;;;;;;;;22.20;55.60;;;;;;5070424;28;19920;-61
2022/09/11 10:41:07;;;;;;;;;;;22.30;55.70;;;;;;5061126;28;19920;-61
2022/09/11 10:43:35;;;;;;;;;;;22.30;55.70;;;;;;5062661;28;19924;-61
2022/09/11 10:46:02;;;;;;;;;;;22.30;55.60;;;;;;5064845;28;19921;-60
2022/09/11 10:48:30;;;;;;;;;;;22.20;55.50;;;;;;5073187;28;19931;-60
2022/09/11 10:51:03;;;;;;;;;;;22.30;56.00;;;;;;5059456;28;19920;-61
2022/09/11 10:53:30;;;;;;;;;;;22.30;55.50;;;;;;5077668;28;19943;-60
2022/09/11 10:55:59;;;;;;;;;;;22.30;55.50;;;;;;5059532;28;20057;-60
2022/09/11 10:58:27;;;;;;;;;;;22.30;55.50;;;;;;5071332;28;19920;-60
2022/09/11 11:00:53;;;;;;;;;;;22.30;55.40;;;;;;5061980;28;19924;-60
2022/09/11 11:03:22;;;;;;;;;;;22.30;55.40;;;;;;5087516;28;19985;-60
2022/09/11 11:05:51;;;;;;;;;;;22.30;55.30;;;;;;5079183;28;20352;-60
2022/09/11 11:08:21;;;;;;;;;;;22.30;55.30;;;;;;5073305;28;20064;-60
2022/09/11 11:10:55;;;;;;;;;;;22.30;55.40;;;;;;5067254;28;19928;-60
2022/09/11 11:13:30;;;;;;;;;;;22.30;55.30;;;;;;5091034;28;19966;-60
2022/09/11 11:15:59;;;;;;;;;;;22.30;55.30;;;;;;5083591;28;19925;-60
2022/09/11 11:18:30;;;;;;;;;;;22.30;55.30;;;;;;5074683;28;19962;-60
2022/09/11 11:20:59;;;;;;;;;;;22.30;55.20;;;;;;5078802;28;19920;-60
2022/09/11 11:23:30;;;;;;;;;;;22.30;55.10;;;;;;5091072;28;19920;-60
2022/09/11 11:26:00;;;;;;;;;;;22.30;55.10;;;;;;5092251;28;20286;-60
2022/09/11 11:28:34;;;;;;;;;;;22.30;55.10;;;;;;5073098;28;19921;-60
2022/09/11 11:31:04;;;;;;;;;;;22.30;55.10;;;;;;5062145;28;19983;-60
2022/09/11 11:33:36;;;;;;;;;;;22.30;55.10;;;;;;5065547;28;19920;-60
2022/09/11 11:36:03;;;;;;;;;;;22.30;55.00;;;;;;5071189;28;19934;-60
2022/09/11 11:38:31;;;;;;;;;;;22.30;55.00;;;;;;5069305;28;19927;-60
2022/09/11 11:41:00;;;;;;;;;;;22.30;55.00;;;;;;5088168;28;19960;-60
2022/09/11 11:43:27;;;;;;;;;;;22.30;54.90;;;;;;5071201;28;19927;-61
2022/09/11 11:45:57;;;;;;;;;;;22.30;54.90;;;;;;5070026;28;20397;-60
2022/09/11 11:48:25;;;;;;;;;;;22.30;54.90;;;;;;5069859;28;19920;-60
2022/09/11 11:50:52;;;;;;;;;;;22.30;54.80;;;;;;5060905;28;19974;-61
2022/09/11 11:53:20;;;;;;;;;;;22.30;54.80;;;;;;5065540;28;19975;-60
2022/09/11 11:55:50;;;;;;;;;;;22.30;54.80;;;;;;5090159;28;20223;-59
2022/09/11 11:58:20;;;;;;;;;;;22.30;54.80;;;;;;5063793;28;20003;-60
2022/09/11 12:00:52;;;;;;;;;;;22.30;54.80;;;;;;5067048;28;19970;-60
2022/09/11 12:03:22;;;;;;;;;;;22.30;54.80;;;;;;5073172;28;19924;-59
2022/09/11 12:05:48;;;;;;;;;;;22.30;54.80;;;;;;5070040;28;19924;-60
2022/09/11 12:08:15;;;;;;;;;;;22.40;54.80;;;;;;5068289;28;20007;-59
2022/09/11 12:10:43;;;;;;;;;;;22.30;54.80;;;;;;5070037;28;19932;-59
2022/09/11 12:13:12;;;;;;;;;;;22.30;54.80;;;;;;5070370;28;19930;-60
2022/09/11 12:15:38;;;;;;;;;;;22.40;54.80;;;;;;5068054;28;19924;-59
2022/09/11 12:18:06;;;;;;;;;;;22.40;54.80;;;;;;5063912;28;19920;-59
2022/09/11 12:20:39;;;;;;;;;;;22.40;54.80;;;;;;5066665;28;19966;-60
2022/09/11 12:23:07;;;;;;;;;;;22.40;54.80;;;;;;5088743;28;19920;-61
2022/09/11 12:25:48;;;;;;;;;;;22.40;54.80;;;;;;5068846;28;20180;-60
2022/09/11 12:28:20;;;;;;;;;;;22.40;54.70;;;;;;5070295;28;19924;-60
2022/09/11 12:31:03;;;;;;;;;;;22.40;54.70;;;;;;5067058;28;20236;-60
2022/09/11 12:33:49;;;;;;;;;;;22.40;54.70;;;;;;5072034;28;19920;-61
2022/09/11 12:36:17;;;;;;;;;;;22.40;54.60;;;;;;5065283;28;19934;-60
2022/09/11 12:38:45;;;;;;;;;;;22.40;54.60;;;;;;5080452;28;19924;-62
2022/09/11 12:41:12;;;;;;;;;;;22.30;54.50;;;;;;5062440;28;20019;-61
2022/09/11 12:43:48;;;;;;;;;;;22.40;54.50;;;;;;5059480;28;19924;-60
2022/09/11 12:46:34;;;;;;;;;;;22.40;54.50;;;;;;5063850;28;19920;-60
2022/09/11 12:49:06;;;;;;;;;;;22.40;54.50;;;;;;5070241;28;19928;-61
2022/09/11 12:51:35;;;;;;;;;;;22.40;54.50;;;;;;5070075;28;19920;-61
2022/09/11 12:54:02;;;;;;;;;;;22.30;54.30;;;;;;5068296;28;19920;-61
2022/09/11 12:56:29;;;;;;;;;;;22.40;54.40;;;;;;5072889;28;19959;-59
2022/09/11 12:58:57;;;;;;;;;;;22.40;54.40;;;;;;5074775;28;19964;-60
2022/09/11 13:01:24;;;;;;;;;;;22.30;54.40;;;;;;5059912;28;19982;-60
2022/09/11 13:03:58;;;;;;;;;;;22.30;54.50;;;;;;5079104;28;19921;-61
2022/09/11 13:06:26;;;;;;;;;;;22.40;54.60;;;;;;5072020;28;19920;-60
2022/09/11 13:08:54;;;;;;;;;;;22.40;54.60;;;;;;5065158;28;19928;-61
2022/09/11 13:11:37;;;;;;;;;;;22.40;54.60;;;;;;5080988;28;19921;-61
2022/09/11 13:14:05;;;;;;;;;;;22.40;54.70;;;;;;5067745;28;19920;-60
2022/09/11 13:16:33;;;;;;;;;;;22.40;54.80;;;;;;5078764;28;20018;-59
2022/09/11 13:19:18;;;;;;;;;;;22.40;54.90;;;;;;5042225;27;2230031;-60
2022/09/11 13:21:46;;;;;;;;;;;22.40;55.00;;;;;;5100564;28;19946;-60
2022/09/11 13:24:24;;;;;;;;;;;22.40;54.90;;;;;;5099668;28;19926;-60
2022/09/11 13:26:54;;;;;;;;;;;22.40;55.50;;;;;;5096727;28;20043;-60
2022/09/11 13:29:21;;;;;;;;;;;22.40;55.10;;;;;;5093017;28;19946;-60
2022/09/11 13:31:48;;;;;;;;;;;22.50;55.20;;;;;;5091618;28;20433;-60
2022/09/11 13:34:16;;;;;;;;;;;22.50;55.20;;;;;;5090377;28;19932;-61
2022/09/11 13:36:45;;;;;;;;;;;22.50;55.20;;;;;;5093432;28;19923;-60
2022/09/11 13:39:12;;;;;;;;;;;22.50;55.20;;;;;;5093879;28;19919;-60
2022/09/11 13:41:42;;;;;;;;;;;22.50;55.10;;;;;;5091595;28;20015;-60
2022/09/11 13:44:09;;;;;;;;;;;22.50;55.10;;;;;;5111840;28;19973;-60
2022/09/11 13:46:36;;;;;;;;;;;22.50;55.20;;;;;;5091707;28;20019;-61
2022/09/11 13:49:14;;;;;;;;;;;22.50;55.20;;;;;;5096423;28;20372;-60
2022/09/11 13:51:42;;;;;;;;;;;22.50;55.20;;;;;;5093694;28;20026;-60
2022/09/11 13:54:11;;;;;;;;;;;22.50;55.20;;;;;;5091572;28;19996;-60
2022/09/11 13:56:44;;;;;;;;;;;22.50;55.10;;;;;;5100130;28;19932;-61
2022/09/11 13:59:43;;;;;;;;;;;22.50;55.10;;;;;;5096755;28;19932;-60
2022/09/11 14:02:20;;;;;;;;;;;22.50;55.00;;;;;;5026875;28;19952;-60
2022/09/11 14:04:47;;;;;;;;;;;22.50;55.10;;;;;;5096211;28;20044;-59
2022/09/11 14:07:20;;;;;;;;;;;22.50;55.00;;;;;;5090248;28;20018;-59
2022/09/11 14:09:47;;;;;;;;;;;22.50;55.00;;;;;;5108834;28;19971;-60
2022/09/11 14:12:14;;;;;;;;;;;22.50;55.00;;;;;;5089727;28;19965;-59
2022/09/11 14:14:41;;;;;;;;;;;22.50;54.90;;;;;;5097721;28;19931;-60
2022/09/11 14:17:08;;;;;;;;;;;22.50;54.90;;;;;;5113694;28;19931;-60
2022/09/11 14:19:35;;;;;;;;;;;22.50;54.90;;;;;;5111225;28;19932;-60
2022/09/11 14:22:02;;;;;;;;;;;22.50;54.90;;;;;;5112362;28;19984;-59
2022/09/11 14:24:33;;;;;;;;;;;22.50;54.80;;;;;;5093279;28;19920;-61